createdAt,value
2023-02-01T00:01:15.989Z,0
2023-02-01T00:02:32.300Z,0
2023-02-01T00:03:48.569Z,0
2023-02-01T00:05:04.866Z,0
2023-02-01T00:06:21.171Z,0
2023-02-01T00:07:37.465Z,0
2023-02-01T00:08:52.775Z,0
2023-02-01T00:10:09.062Z,0
2023-02-01T00:11:25.368Z,0
2023-02-01T00:12:41.650Z,0
2023-02-01T00:13:57.959Z,0
2023-02-01T00:15:14.254Z,0
2023-02-01T00:16:29.566Z,0
2023-02-01T00:17:45.868Z,0
2023-02-01T00:19:02.151Z,0
2023-02-01T00:20:18.442Z,0
2023-02-01T00:21:34.731Z,0
2023-02-01T00:22:51.032Z,0
2023-02-01T00:24:07.338Z,0
2023-02-01T00:25:23.635Z,0
2023-02-01T00:26:39.909Z,0
2023-02-01T00:27:56.218Z,0
2023-02-01T00:29:12.501Z,0
2023-02-01T00:30:28.806Z,0
2023-02-01T00:31:45.102Z,0
2023-02-01T00:33:00.408Z,0
2023-02-01T00:34:16.000Z,0
2023-02-01T00:35:32.990Z,0
2023-02-01T00:36:49.286Z,0
2023-02-01T00:38:05.585Z,0
2023-02-01T00:39:21.882Z,0
2023-02-01T00:40:38.180Z,0
2023-02-01T00:41:54.471Z,0
2023-02-01T00:43:10.764Z,0
2023-02-01T00:44:27.059Z,0
2023-02-01T00:45:43.347Z,0
2023-02-01T00:46:59.638Z,0
2023-02-01T00:48:15.942Z,0
2023-02-01T00:49:31.239Z,0
2023-02-01T00:50:47.546Z,0
2023-02-01T00:52:03.832Z,0
2023-02-01T00:53:20.136Z,0
2023-02-01T00:54:36.424Z,0
2023-02-01T00:55:52.715Z,0
2023-02-01T00:57:09.018Z,0
2023-02-01T00:58:25.309Z,0
2023-02-01T00:59:41.599Z,0
2023-02-01T01:00:57.000Z,0
2023-02-01T01:02:14.208Z,0
2023-02-01T01:03:30.492Z,0
2023-02-01T01:04:46.781Z,0
2023-02-01T01:06:02.088Z,0
2023-02-01T01:07:18.376Z,0
2023-02-01T01:08:34.676Z,0
2023-02-01T01:09:50.976Z,0
2023-02-01T01:11:07.282Z,0
2023-02-01T01:12:23.566Z,0
2023-02-01T01:13:39.864Z,0
2023-02-01T01:14:56.159Z,0
2023-02-01T01:16:12.459Z,0
2023-02-01T01:17:28.738Z,0
2023-02-01T01:18:45.031Z,0
2023-02-01T01:20:01.328Z,0
2023-02-01T01:21:17.636Z,0
2023-02-01T01:22:32.935Z,0
2023-02-01T01:23:49.224Z,0
2023-02-01T01:25:05.520Z,0
2023-02-01T01:26:21.826Z,0
2023-02-01T01:27:38.103Z,0
2023-02-01T01:28:54.413Z,0
2023-02-01T01:30:10.698Z,0
2023-02-01T01:31:26.993Z,0
2023-02-01T01:32:43.279Z,0
2023-02-01T01:33:59.587Z,0
2023-02-01T01:35:15.868Z,0
2023-02-01T01:36:32.179Z,0
2023-02-01T01:37:48.468Z,0
2023-02-01T01:39:03.776Z,0
2023-02-01T01:40:20.066Z,0
2023-02-01T01:41:36.358Z,0
2023-02-01T01:42:52.652Z,0
2023-02-01T01:44:08.948Z,0
2023-02-01T01:45:25.243Z,0
2023-02-01T01:46:41.552Z,0
2023-02-01T01:47:57.837Z,0
2023-02-01T01:49:14.145Z,0
2023-02-01T01:50:30.431Z,0
2023-02-01T01:51:46.713Z,0
2023-02-01T01:53:03.021Z,0
2023-02-01T01:54:19.302Z,0
2023-02-01T01:55:34.617Z,0
2023-02-01T01:56:50.922Z,0
2023-02-01T01:58:07.198Z,0
2023-02-01T01:59:23.521Z,0
2023-02-01T02:00:39.789Z,0
2023-02-01T02:01:56.083Z,0
2023-02-01T02:03:12.386Z,0
2023-02-01T02:04:28.701Z,0
2023-02-01T02:05:44.987Z,0
2023-02-01T02:07:01.282Z,0
2023-02-01T02:08:17.559Z,0
2023-02-01T02:09:33.869Z,0
2023-02-01T02:10:50.147Z,0
2023-02-01T02:12:05.462Z,0
2023-02-01T02:13:21.763Z,0
2023-02-01T02:14:38.045Z,0
2023-02-01T02:15:54.339Z,0
2023-02-01T02:17:10.658Z,0
2023-02-01T02:18:26.938Z,0
2023-02-01T02:19:43.238Z,0
2023-02-01T02:22:15.809Z,0
2023-02-01T02:23:32.121Z,0
2023-02-01T02:24:48.414Z,0
2023-02-01T02:26:04.703Z,0
2023-02-01T02:27:20.989Z,0
2023-02-01T02:28:36.315Z,0
2023-02-01T02:29:52.607Z,0
2023-02-01T02:31:08.894Z,0
2023-02-01T02:32:25.193Z,0
2023-02-01T02:33:41.491Z,0
2023-02-01T02:34:57.768Z,0
2023-02-01T02:36:14.071Z,0
2023-02-01T02:37:30.374Z,0
2023-02-01T02:38:46.652Z,0
2023-02-01T02:40:02.963Z,0
2023-02-01T02:41:19.256Z,0
2023-02-01T02:42:35.534Z,0
2023-02-01T02:43:51.838Z,0
2023-02-01T02:45:07.150Z,0
2023-02-01T02:46:23.442Z,0
2023-02-01T02:47:39.743Z,0
2023-02-01T02:48:56.036Z,0
2023-02-01T02:50:12.335Z,0
2023-02-01T02:51:28.623Z,0
2023-02-01T02:52:44.925Z,0
2023-02-01T02:54:01.209Z,0
2023-02-01T02:55:17.500Z,0
2023-02-01T02:56:33.804Z,0
2023-02-01T02:57:50.088Z,0
2023-02-01T02:59:06.392Z,0
2023-02-01T03:00:22.694Z,0
2023-02-01T03:01:38.003Z,0
2023-02-01T03:02:54.309Z,0
2023-02-01T03:04:10.579Z,0
2023-02-01T03:05:26.870Z,0
2023-02-01T03:06:43.178Z,0
2023-02-01T03:07:59.469Z,0
2023-02-01T03:09:15.752Z,0
2023-02-01T03:10:32.054Z,0
2023-02-01T03:11:48.358Z,0
2023-02-01T03:13:04.658Z,0
2023-02-01T03:14:20.934Z,0
2023-02-01T03:15:37.231Z,0
2023-02-01T03:16:53.523Z,0
2023-02-01T03:18:08.832Z,0
2023-02-01T03:19:25.140Z,0
2023-02-01T03:20:41.424Z,0
2023-02-01T03:23:14.012Z,0
2023-02-01T03:24:30.316Z,0
2023-02-01T03:25:46.619Z,0
2023-02-01T03:27:02.911Z,0
2023-02-01T03:28:19.197Z,0
2023-02-01T03:29:35.484Z,0
2023-02-01T03:30:51.783Z,0
2023-02-01T03:32:08.079Z,0
2023-02-01T03:33:24.359Z,0
2023-02-01T03:34:39.679Z,0
2023-02-01T03:35:55.980Z,0
2023-02-01T03:37:12.260Z,0
2023-02-01T03:38:28.561Z,0
2023-02-01T03:39:44.846Z,0
2023-02-01T03:41:01.146Z,0
2023-02-01T03:42:17.437Z,0
2023-02-01T03:43:33.750Z,0
2023-02-01T03:44:50.026Z,0
2023-02-01T03:46:06.334Z,0
2023-02-01T03:47:22.612Z,0
2023-02-01T03:48:38.919Z,0
2023-02-01T03:49:55.224Z,0
2023-02-01T03:51:10.515Z,0
2023-02-01T03:52:26.822Z,0
2023-02-01T03:53:43.125Z,0
2023-02-01T03:54:59.399Z,0
2023-02-01T03:56:15.691Z,0
2023-02-01T03:57:32.008Z,0
2023-02-01T03:58:48.295Z,0
2023-02-01T04:00:04.572Z,0
2023-02-01T04:01:20.878Z,0
2023-02-01T04:02:37.176Z,0
2023-02-01T04:03:53.461Z,0
2023-02-01T04:05:09.752Z,0
2023-02-01T04:06:26.051Z,0
2023-02-01T04:07:42.480Z,0
2023-02-01T04:08:58.776Z,0
2023-02-01T04:10:15.068Z,0
2023-02-01T04:11:31.342Z,0
2023-02-01T04:12:47.651Z,0
2023-02-01T04:14:03.935Z,0
2023-02-01T04:15:20.230Z,0
2023-02-01T04:16:36.520Z,0
2023-02-01T04:17:52.834Z,0
2023-02-01T04:19:09.140Z,0
2023-02-01T04:20:25.428Z,0
2023-02-01T04:21:41.723Z,0
2023-02-01T04:22:57.994Z,0
2023-02-01T04:24:14.411Z,0
2023-02-01T04:25:30.704Z,0
2023-02-01T04:26:46.999Z,0
2023-02-01T04:28:03.313Z,0
2023-02-01T04:29:19.589Z,0
2023-02-01T04:30:35.907Z,0
2023-02-01T04:31:52.319Z,0
2023-02-01T04:33:08.601Z,0
2023-02-01T04:34:24.895Z,0
2023-02-01T04:35:41.187Z,0
2023-02-01T04:36:57.483Z,0
2023-02-01T04:38:13.788Z,0
2023-02-01T04:39:30.092Z,0
2023-02-01T04:40:46.364Z,0
2023-02-01T04:42:02.680Z,0
2023-02-01T04:43:18.970Z,0
2023-02-01T04:44:35.276Z,0
2023-02-01T04:45:51.553Z,0
2023-02-01T04:47:07.841Z,0
2023-02-01T04:48:23.145Z,0
2023-02-01T04:49:39.457Z,0
2023-02-01T04:50:55.734Z,0
2023-02-01T04:52:12.040Z,0
2023-02-01T04:53:28.345Z,0
2023-02-01T04:54:44.632Z,0
2023-02-01T04:56:00.927Z,0
2023-02-01T04:57:17.236Z,0
2023-02-01T04:58:33.506Z,0
2023-02-01T04:59:49.799Z,0
2023-02-01T05:01:06.093Z,0
2023-02-01T05:02:22.384Z,0
2023-02-01T05:03:38.697Z,0
2023-02-01T05:04:53.997Z,0
2023-02-01T05:06:10.282Z,0
2023-02-01T05:07:26.586Z,0
2023-02-01T05:08:42.884Z,0
2023-02-01T05:09:59.166Z,0
2023-02-01T05:11:15.472Z,0
2023-02-01T05:12:31.758Z,0
2023-02-01T05:13:48.054Z,0
2023-02-01T05:15:04.353Z,0
2023-02-01T05:16:20.000Z,0
2023-02-01T05:17:36.941Z,0
2023-02-01T05:18:53.239Z,0
2023-02-01T05:20:09.529Z,0
2023-02-01T05:21:24.835Z,0
2023-02-01T05:22:41.127Z,0
2023-02-01T05:23:57.429Z,0
2023-02-01T05:25:13.714Z,0
2023-02-01T05:26:30.030Z,0
2023-02-01T05:27:46.322Z,0
2023-02-01T05:29:02.614Z,0
2023-02-01T05:30:18.904Z,0
2023-02-01T05:31:35.205Z,0
2023-02-01T05:32:51.000Z,0
2023-02-01T05:34:07.794Z,0
2023-02-01T05:35:24.073Z,0
2023-02-01T05:36:40.376Z,0
2023-02-01T05:37:55.698Z,0
2023-02-01T05:39:11.970Z,0
2023-02-01T05:40:28.262Z,0
2023-02-01T05:41:44.576Z,0
2023-02-01T05:43:00.872Z,0
2023-02-01T05:44:17.161Z,0
2023-02-01T05:45:33.449Z,0
2023-02-01T05:46:49.742Z,0
2023-02-01T05:48:06.038Z,0
2023-02-01T05:49:22.340Z,0
2023-02-01T05:50:38.635Z,0
2023-02-01T05:51:54.921Z,0
2023-02-01T05:53:11.222Z,0
2023-02-01T05:54:26.530Z,0
2023-02-01T05:55:42.831Z,0
2023-02-01T05:56:59.122Z,0
2023-02-01T05:58:15.426Z,0
2023-02-01T05:59:31.709Z,0
2023-02-01T06:00:47.996Z,0
2023-02-01T06:02:04.295Z,0
2023-02-01T06:03:20.596Z,0
2023-02-01T06:04:36.887Z,0
2023-02-01T06:05:53.181Z,0
2023-02-01T06:07:09.477Z,0
2023-02-01T06:08:25.777Z,0
2023-02-01T06:09:42.057Z,0
2023-02-01T06:10:57.369Z,0
2023-02-01T06:12:13.662Z,0
2023-02-01T06:13:29.968Z,0
2023-02-01T06:14:46.243Z,0
2023-02-01T06:16:02.546Z,0
2023-02-01T06:17:18.848Z,0
2023-02-01T06:18:35.133Z,0
2023-02-01T06:19:51.426Z,0
2023-02-01T06:21:07.668Z,1
2023-02-01T06:22:23.973Z,0
2023-02-01T06:23:40.261Z,0
2023-02-01T06:24:56.521Z,1
2023-02-01T06:26:12.759Z,1
2023-02-01T06:27:28.066Z,0
2023-02-01T06:28:44.319Z,2
2023-02-01T06:30:00.612Z,0
2023-02-01T06:31:16.853Z,2
2023-02-01T06:32:33.097Z,2
2023-02-01T06:33:49.352Z,1
2023-02-01T06:35:05.576Z,1
2023-02-01T06:36:21.823Z,5
2023-02-01T06:37:38.068Z,5
2023-02-01T06:38:54.314Z,8
2023-02-01T06:40:10.540Z,12
2023-02-01T06:41:26.799Z,17
2023-02-01T06:42:43.035Z,32
2023-02-01T06:43:58.281Z,33
2023-02-01T06:45:14.519Z,36
2023-02-01T06:46:30.759Z,42
2023-02-01T06:47:47.013Z,55
2023-02-01T06:49:03.252Z,56
2023-02-01T06:50:19.493Z,55
2023-02-01T06:51:35.721Z,55
2023-02-01T06:52:51.974Z,57
2023-02-01T06:54:08.196Z,58
2023-02-01T06:55:24.444Z,57
2023-02-01T06:56:40.701Z,56
2023-02-01T06:57:56.923Z,59
2023-02-01T06:59:13.184Z,64
2023-02-01T07:00:28.420Z,77
2023-02-01T07:01:44.656Z,91
2023-02-01T07:03:00.905Z,98
2023-02-01T07:04:17.144Z,105
2023-02-01T07:05:33.379Z,112
2023-02-01T07:06:49.640Z,103
2023-02-01T07:08:05.865Z,95
2023-02-01T07:09:22.112Z,94
2023-02-01T07:10:38.343Z,82
2023-02-01T07:11:54.596Z,88
2023-02-01T07:13:10.837Z,116
2023-02-01T07:14:27.059Z,145
2023-02-01T07:15:43.317Z,192
2023-02-01T07:16:58.574Z,248
2023-02-01T07:18:14.808Z,370
2023-02-01T07:19:31.046Z,312
2023-02-01T07:20:47.313Z,306
2023-02-01T07:22:03.543Z,237
2023-02-01T07:23:19.764Z,311
2023-02-01T07:24:36.011Z,355
2023-02-01T07:25:52.239Z,416
2023-02-01T07:27:08.497Z,463
2023-02-01T07:28:24.724Z,480
2023-02-01T07:29:40.968Z,415
2023-02-01T07:30:57.206Z,379
2023-02-01T07:32:13.442Z,365
2023-02-01T07:33:28.701Z,294
2023-02-01T07:34:44.938Z,209
2023-02-01T07:36:01.184Z,201
2023-02-01T07:37:17.420Z,178
2023-02-01T07:38:33.664Z,172
2023-02-01T07:39:49.928Z,228
2023-02-01T07:41:06.162Z,282
2023-02-01T07:42:22.382Z,373
2023-02-01T07:43:38.643Z,449
2023-02-01T07:44:54.863Z,458
2023-02-01T07:46:11.123Z,435
2023-02-01T07:47:27.361Z,414
2023-02-01T07:48:43.598Z,438
2023-02-01T07:49:58.857Z,490
2023-02-01T07:51:15.105Z,574
2023-02-01T07:52:31.322Z,590
2023-02-01T07:53:47.571Z,541
2023-02-01T07:55:03.818Z,427
2023-02-01T07:56:20.051Z,312
2023-02-01T07:57:36.300Z,321
2023-02-01T07:58:52.525Z,348
2023-02-01T08:00:08.777Z,410
2023-02-01T08:01:25.022Z,437
2023-02-01T08:02:41.247Z,591
2023-02-01T08:03:57.494Z,814
2023-02-01T08:05:13.731Z,899
2023-02-01T08:06:28.980Z,720
2023-02-01T08:07:45.222Z,579
2023-02-01T08:09:01.467Z,586
2023-02-01T08:10:17.721Z,629
2023-02-01T08:11:33.966Z,533
2023-02-01T08:12:50.191Z,410
2023-02-01T08:14:06.429Z,281
2023-02-01T08:15:22.676Z,250
2023-02-01T08:16:38.921Z,173
2023-02-01T08:17:55.164Z,185
2023-02-01T08:19:11.411Z,379
2023-02-01T08:20:27.636Z,410
2023-02-01T08:21:43.879Z,577
2023-02-01T08:22:59.123Z,674
2023-02-01T08:24:15.364Z,800
2023-02-01T08:25:31.617Z,658
2023-02-01T08:26:47.863Z,732
2023-02-01T08:28:04.102Z,592
2023-02-01T08:29:20.345Z,708
2023-02-01T08:30:36.569Z,612
2023-02-01T08:31:52.805Z,489
2023-02-01T08:33:09.055Z,419
2023-02-01T08:34:25.285Z,307
2023-02-01T08:35:41.545Z,265
2023-02-01T08:36:57.796Z,212
2023-02-01T08:38:14.028Z,370
2023-02-01T08:39:29.294Z,341
2023-02-01T08:40:45.509Z,360
2023-02-01T08:42:01.744Z,400
2023-02-01T08:43:18.004Z,266
2023-02-01T08:44:34.227Z,256
2023-02-01T08:45:50.472Z,310
2023-02-01T08:47:05.744Z,323
2023-02-01T08:48:21.978Z,324
2023-02-01T08:49:38.000Z,464
2023-02-01T08:50:54.474Z,423
2023-02-01T08:52:10.698Z,310
2023-02-01T08:53:26.931Z,198
2023-02-01T08:54:43.191Z,251
2023-02-01T08:55:59.418Z,332
2023-02-01T08:57:15.663Z,329
2023-02-01T08:58:31.917Z,380
2023-02-01T08:59:48.143Z,606
2023-02-01T09:01:04.373Z,482
2023-02-01T09:02:20.626Z,570
2023-02-01T09:03:35.888Z,581
2023-02-01T09:04:52.139Z,566
2023-02-01T09:06:08.362Z,549
2023-02-01T09:07:24.613Z,602
2023-02-01T09:08:40.847Z,525
2023-02-01T09:09:57.077Z,687
2023-02-01T09:11:13.343Z,472
2023-02-01T09:12:29.571Z,365
2023-02-01T09:13:45.797Z,553
2023-02-01T09:15:02.049Z,474
2023-02-01T09:16:18.284Z,199
2023-02-01T09:17:34.519Z,280
2023-02-01T09:18:50.771Z,499
2023-02-01T09:20:06.023Z,486
2023-02-01T09:21:22.261Z,400
2023-02-01T09:22:38.491Z,455
2023-02-01T09:23:54.750Z,411
2023-02-01T09:25:10.990Z,568
2023-02-01T09:26:27.230Z,641
2023-02-01T09:27:43.465Z,1188
2023-02-01T09:28:59.712Z,855
2023-02-01T09:30:15.941Z,688
2023-02-01T09:31:32.196Z,718
2023-02-01T09:32:48.423Z,1082
2023-02-01T09:34:04.670Z,1003
2023-02-01T09:35:20.895Z,683
2023-02-01T09:36:36.167Z,1022
2023-02-01T09:37:52.400Z,786
2023-02-01T09:39:08.645Z,323
2023-02-01T09:40:24.891Z,773
2023-02-01T09:41:41.116Z,842
2023-02-01T09:42:57.358Z,839
2023-02-01T09:44:13.597Z,855
2023-02-01T09:45:29.850Z,774
2023-02-01T09:46:46.085Z,1018
2023-02-01T09:48:02.318Z,929
2023-02-01T09:49:18.575Z,1545
2023-02-01T09:50:34.818Z,2586
2023-02-01T09:51:51.054Z,2553
2023-02-01T09:53:06.291Z,1026
2023-02-01T09:54:22.554Z,6385
2023-02-01T09:55:38.782Z,4393
2023-02-01T09:56:55.023Z,3525
2023-02-01T09:58:11.261Z,3354
2023-02-01T09:59:27.499Z,3327
2023-02-01T10:00:43.737Z,2634
2023-02-01T10:01:59.996Z,3409
2023-02-01T10:03:16.251Z,2337
2023-02-01T10:04:32.472Z,1299
2023-02-01T10:05:48.723Z,930
2023-02-01T10:07:04.938Z,696
2023-02-01T10:08:21.187Z,1455
2023-02-01T10:09:36.449Z,1808
2023-02-01T10:10:52.696Z,1787
2023-02-01T10:12:08.929Z,1826
2023-02-01T10:13:25.155Z,2386
2023-02-01T10:14:41.422Z,2283
2023-02-01T10:15:57.670Z,2797
2023-02-01T10:17:13.880Z,2584
2023-02-01T10:18:30.133Z,2572
2023-02-01T10:19:46.376Z,2650
2023-02-01T10:21:02.598Z,2826
2023-02-01T10:22:18.864Z,3180
2023-02-01T10:23:35.095Z,2877
2023-02-01T10:24:51.319Z,3041
2023-02-01T10:26:06.574Z,3390
2023-02-01T10:27:22.840Z,2495
2023-02-01T10:28:39.068Z,2652
2023-02-01T10:29:55.297Z,1531
2023-02-01T10:31:11.539Z,2939
2023-02-01T10:32:27.778Z,2664
2023-02-01T10:33:44.017Z,1636
2023-02-01T10:35:00.267Z,1457
2023-02-01T10:36:16.509Z,1595
2023-02-01T10:37:32.740Z,1427
2023-02-01T10:38:48.995Z,1145
2023-02-01T10:40:05.225Z,1382
2023-02-01T10:41:21.470Z,7805
2023-02-01T10:42:36.720Z,4007
2023-02-01T10:43:52.964Z,2416
2023-02-01T10:45:09.197Z,1614
2023-02-01T10:46:25.465Z,1842
2023-02-01T10:47:41.696Z,2248
2023-02-01T10:48:57.933Z,2184
2023-02-01T10:50:14.158Z,2178
2023-02-01T10:51:30.413Z,2242
2023-02-01T10:52:46.643Z,2616
2023-02-01T10:54:02.896Z,2706
2023-02-01T10:55:19.143Z,2011
2023-02-01T10:56:35.371Z,1819
2023-02-01T10:57:51.630Z,1614
2023-02-01T10:59:06.871Z,1128
2023-02-01T11:00:23.112Z,1019
2023-02-01T11:01:39.353Z,1384
2023-02-01T11:02:55.589Z,1371
2023-02-01T11:04:11.817Z,1864
2023-02-01T11:05:28.063Z,2680
2023-02-01T11:06:44.298Z,4183
2023-02-01T11:08:00.534Z,4405
2023-02-01T11:09:16.784Z,2998
2023-02-01T11:10:33.035Z,4397
2023-02-01T11:11:49.258Z,3887
2023-02-01T11:13:05.543Z,74688
2023-02-01T11:14:21.755Z,75254
2023-02-01T11:15:38.109Z,75228
2023-02-01T11:16:54.368Z,60179
2023-02-01T11:18:10.624Z,12847
2023-02-01T11:19:26.835Z,6964
2023-02-01T11:20:43.069Z,4478
2023-02-01T11:21:59.316Z,18453
2023-02-01T11:23:15.550Z,12596
2023-02-01T11:24:31.794Z,5490
2023-02-01T11:25:48.046Z,8118
2023-02-01T11:27:04.290Z,3433
2023-02-01T11:28:20.526Z,2083
2023-02-01T11:29:36.755Z,1494
2023-02-01T11:30:53.003Z,1112
2023-02-01T11:32:08.249Z,881
2023-02-01T11:33:24.490Z,874
2023-02-01T11:34:40.725Z,1019
2023-02-01T11:35:56.974Z,1226
2023-02-01T11:37:13.208Z,1006
2023-02-01T11:38:29.453Z,1192
2023-02-01T11:39:45.697Z,1792
2023-02-01T11:41:01.937Z,2163
2023-02-01T11:42:18.197Z,1749
2023-02-01T11:43:34.436Z,1560
2023-02-01T11:44:50.647Z,2321
2023-02-01T11:46:06.891Z,2766
2023-02-01T11:47:23.145Z,1554
2023-02-01T11:48:38.400Z,10431
2023-02-01T11:49:54.647Z,4857
2023-02-01T11:51:10.874Z,2671
2023-02-01T11:52:27.107Z,9044
2023-02-01T11:53:43.363Z,14755
2023-02-01T11:54:59.606Z,8247
2023-02-01T11:56:15.833Z,12995
2023-02-01T11:57:32.067Z,5070
2023-02-01T11:58:48.305Z,3316
2023-02-01T12:00:04.563Z,2358
2023-02-01T12:01:20.787Z,1810
2023-02-01T12:02:37.044Z,1827
2023-02-01T12:03:53.274Z,1625
2023-02-01T12:05:08.527Z,1755
2023-02-01T12:06:24.777Z,1614
2023-02-01T12:07:41.001Z,1640
2023-02-01T12:08:57.270Z,1724
2023-02-01T12:10:13.490Z,1598
2023-02-01T12:11:29.734Z,1421
2023-02-01T12:12:45.976Z,1404
2023-02-01T12:14:02.210Z,1129
2023-02-01T12:15:18.444Z,1079
2023-02-01T12:16:34.698Z,1081
2023-02-01T12:17:50.942Z,1461
2023-02-01T12:19:07.179Z,1263
2023-02-01T12:20:23.412Z,2989
2023-02-01T12:21:38.685Z,3183
2023-02-01T12:22:54.912Z,3164
2023-02-01T12:24:11.159Z,3057
2023-02-01T12:25:27.418Z,2243
2023-02-01T12:26:43.623Z,1716
2023-02-01T12:27:59.874Z,1708
2023-02-01T12:29:16.107Z,1672
2023-02-01T12:30:32.356Z,1972
2023-02-01T12:31:48.603Z,1556
2023-02-01T12:33:04.822Z,1862
2023-02-01T12:34:21.081Z,2315
2023-02-01T12:35:37.306Z,2370
2023-02-01T12:36:53.541Z,1916
2023-02-01T12:38:08.808Z,1874
2023-02-01T12:39:25.042Z,1990
2023-02-01T12:40:41.289Z,2110
2023-02-01T12:41:57.527Z,2006
2023-02-01T12:43:13.769Z,2169
2023-02-01T12:44:30.007Z,2192
2023-02-01T12:45:46.278Z,2149
2023-02-01T12:47:02.507Z,1905
2023-02-01T12:48:18.744Z,1681
2023-02-01T12:49:34.959Z,1415
2023-02-01T12:50:51.222Z,1191
2023-02-01T12:52:07.468Z,1088
2023-02-01T12:53:23.698Z,1094
2023-02-01T12:54:38.971Z,1078
2023-02-01T12:55:55.183Z,1132
2023-02-01T12:57:11.441Z,1222
2023-02-01T12:58:27.674Z,950
2023-02-01T12:59:43.904Z,817
2023-02-01T13:01:00.150Z,715
2023-02-01T13:02:15.402Z,679
2023-02-01T13:03:31.666Z,613
2023-02-01T13:04:47.905Z,695
2023-02-01T13:06:04.140Z,747
2023-02-01T13:07:20.362Z,669
2023-02-01T13:08:36.602Z,761
2023-02-01T13:09:52.841Z,806
2023-02-01T13:11:09.091Z,860
2023-02-01T13:12:25.337Z,896
2023-02-01T13:13:41.572Z,979
2023-02-01T13:14:57.826Z,856
2023-02-01T13:16:14.046Z,626
2023-02-01T13:17:30.303Z,653
2023-02-01T13:18:45.556Z,551
2023-02-01T13:20:01.786Z,483
2023-02-01T13:21:18.030Z,491
2023-02-01T13:22:34.285Z,425
2023-02-01T13:23:50.501Z,526
2023-02-01T13:25:06.750Z,626
2023-02-01T13:26:22.996Z,685
2023-02-01T13:27:39.225Z,567
2023-02-01T13:28:55.481Z,589
2023-02-01T13:30:11.714Z,639
2023-02-01T13:31:27.958Z,637
2023-02-01T13:32:44.195Z,670
2023-02-01T13:34:00.427Z,648
2023-02-01T13:35:15.685Z,658
2023-02-01T13:36:31.931Z,662
2023-02-01T13:37:48.177Z,686
2023-02-01T13:39:04.407Z,668
2023-02-01T13:40:20.662Z,621
2023-02-01T13:41:36.895Z,612
2023-02-01T13:42:53.120Z,670
2023-02-01T13:44:09.378Z,728
2023-02-01T13:45:25.625Z,732
2023-02-01T13:46:41.853Z,744
2023-02-01T13:47:58.092Z,733
2023-02-01T13:49:14.333Z,639
2023-02-01T13:50:30.582Z,599
2023-02-01T13:51:45.822Z,658
2023-02-01T13:53:02.071Z,796
2023-02-01T13:54:18.300Z,744
2023-02-01T13:55:34.568Z,875
2023-02-01T13:56:50.777Z,1224
2023-02-01T13:58:07.020Z,1038
2023-02-01T13:59:23.292Z,1072
2023-02-01T14:00:39.503Z,1185
2023-02-01T14:01:55.759Z,1143
2023-02-01T14:03:11.988Z,1262
2023-02-01T14:04:28.235Z,1123
2023-02-01T14:05:44.490Z,1039
2023-02-01T14:07:00.732Z,898
2023-02-01T14:08:15.989Z,764
2023-02-01T14:09:32.210Z,675
2023-02-01T14:10:48.442Z,616
2023-02-01T14:12:04.707Z,552
2023-02-01T14:13:20.943Z,502
2023-02-01T14:14:37.177Z,462
2023-02-01T14:15:53.405Z,436
2023-02-01T14:17:09.646Z,459
2023-02-01T14:18:25.904Z,505
2023-02-01T14:19:42.136Z,367
2023-02-01T14:20:58.386Z,350
2023-02-01T14:22:14.619Z,370
2023-02-01T14:23:30.858Z,418
2023-02-01T14:24:46.098Z,290
2023-02-01T14:26:02.352Z,209
2023-02-01T14:27:18.590Z,258
2023-02-01T14:28:34.828Z,220
2023-02-01T14:29:51.084Z,285
2023-02-01T14:31:07.327Z,344
2023-02-01T14:32:23.538Z,397
2023-02-01T14:33:39.804Z,478
2023-02-01T14:34:56.027Z,1170
2023-02-01T14:36:12.270Z,1225
2023-02-01T14:37:28.513Z,1199
2023-02-01T14:38:44.761Z,1015
2023-02-01T14:40:00.997Z,688
2023-02-01T14:41:16.235Z,651
2023-02-01T14:42:32.491Z,947
2023-02-01T14:43:48.742Z,1739
2023-02-01T14:45:04.976Z,1735
2023-02-01T14:46:21.215Z,1853
2023-02-01T14:47:37.454Z,1579
2023-02-01T14:48:53.696Z,1047
2023-02-01T14:50:09.939Z,833
2023-02-01T14:51:26.173Z,820
2023-02-01T14:52:42.414Z,694
2023-02-01T14:53:58.666Z,617
2023-02-01T14:55:14.889Z,626
2023-02-01T14:56:31.119Z,589
2023-02-01T14:57:46.383Z,652
2023-02-01T14:59:02.620Z,540
2023-02-01T15:00:18.855Z,460
2023-02-01T15:01:35.103Z,377
2023-02-01T15:02:51.353Z,305
2023-02-01T15:04:07.588Z,312
2023-02-01T15:05:23.835Z,345
2023-02-01T15:06:40.086Z,338
2023-02-01T15:07:56.307Z,275
2023-02-01T15:09:12.000Z,251
2023-02-01T15:10:28.794Z,143
2023-02-01T15:11:45.042Z,227
2023-02-01T15:13:01.264Z,411
2023-02-01T15:14:16.533Z,501
2023-02-01T15:15:32.772Z,442
2023-02-01T15:16:49.002Z,113
2023-02-01T15:18:05.257Z,209
2023-02-01T15:19:21.476Z,618
2023-02-01T15:20:37.726Z,571
2023-02-01T15:21:53.987Z,502
2023-02-01T15:23:10.203Z,461
2023-02-01T15:24:26.460Z,299
2023-02-01T15:25:42.690Z,251
2023-02-01T15:26:58.935Z,185
2023-02-01T15:28:15.180Z,147
2023-02-01T15:29:31.410Z,177
2023-02-01T15:30:46.654Z,247
2023-02-01T15:32:02.901Z,274
2023-02-01T15:33:19.137Z,267
2023-02-01T15:34:35.399Z,213
2023-02-01T15:35:51.614Z,148
2023-02-01T15:37:07.853Z,156
2023-02-01T15:38:24.104Z,124
2023-02-01T15:39:40.334Z,73
2023-02-01T15:40:56.593Z,33
2023-02-01T15:42:12.820Z,36
2023-02-01T15:43:29.078Z,32
2023-02-01T15:44:45.298Z,27
2023-02-01T15:46:01.540Z,40
2023-02-01T15:47:16.813Z,35
2023-02-01T15:48:33.040Z,35
2023-02-01T15:49:49.289Z,28
2023-02-01T15:51:05.514Z,28
2023-02-01T15:52:21.791Z,31
2023-02-01T15:53:37.994Z,28
2023-02-01T15:54:54.237Z,22
2023-02-01T15:56:10.492Z,14
2023-02-01T15:57:26.719Z,8
2023-02-01T15:58:42.963Z,6
2023-02-01T15:59:59.212Z,3
2023-02-01T16:01:15.441Z,2
2023-02-01T16:02:31.686Z,2
2023-02-01T16:03:46.941Z,2
2023-02-01T16:05:03.187Z,1
2023-02-01T16:06:19.418Z,1
2023-02-01T16:07:35.659Z,1
2023-02-01T16:08:51.907Z,1
2023-02-01T16:10:08.193Z,0
2023-02-01T16:11:24.489Z,0
2023-02-01T16:12:40.795Z,0
2023-02-01T16:13:57.078Z,0
2023-02-01T16:15:13.384Z,0
2023-02-01T16:16:29.667Z,0
2023-02-01T16:17:45.971Z,0
2023-02-01T16:19:02.250Z,0
2023-02-01T16:20:17.582Z,0
2023-02-01T16:22:50.169Z,0
2023-02-01T16:24:06.447Z,0
2023-02-01T16:25:22.747Z,0
2023-02-01T16:26:39.031Z,0
2023-02-01T16:27:55.345Z,0
2023-02-01T16:29:11.633Z,0
2023-02-01T16:30:27.915Z,0
2023-02-01T16:31:44.214Z,0
2023-02-01T16:33:00.510Z,0
2023-02-01T16:34:16.813Z,0
2023-02-01T16:35:33.119Z,0
2023-02-01T16:36:48.414Z,0
2023-02-01T16:38:04.699Z,0
2023-02-01T16:39:21.000Z,0
2023-02-01T16:40:37.314Z,0
2023-02-01T16:41:53.595Z,0
2023-02-01T16:43:09.896Z,0
2023-02-01T16:44:26.188Z,0
2023-02-01T16:45:42.477Z,0
2023-02-01T16:46:58.772Z,0
2023-02-01T16:48:15.072Z,0
2023-02-01T16:49:31.365Z,0
2023-02-01T16:50:47.662Z,0
2023-02-01T16:52:03.949Z,0
2023-02-01T16:53:19.282Z,0
2023-02-01T16:54:35.552Z,0
2023-02-01T16:55:51.859Z,0
2023-02-01T16:57:08.132Z,0
2023-02-01T16:58:24.426Z,0
2023-02-01T16:59:40.738Z,0
2023-02-01T17:00:57.020Z,0
2023-02-01T17:02:13.331Z,0
2023-02-01T17:03:29.636Z,0
2023-02-01T17:04:45.905Z,0
2023-02-01T17:06:02.221Z,0
2023-02-01T17:07:18.485Z,0
2023-02-01T17:08:34.801Z,0
2023-02-01T17:09:50.105Z,0
2023-02-01T17:11:06.400Z,0
2023-02-01T17:12:22.688Z,0
2023-02-01T17:13:38.997Z,0
2023-02-01T17:14:55.288Z,0
2023-02-01T17:16:11.597Z,0
2023-02-01T17:17:26.902Z,0
2023-02-01T17:18:43.178Z,0
2023-02-01T17:19:59.484Z,0
2023-02-01T17:21:15.772Z,0
2023-02-01T17:22:32.058Z,0
2023-02-01T17:23:48.381Z,0
2023-02-01T17:25:04.672Z,0
2023-02-01T17:26:20.948Z,0
2023-02-01T17:27:37.249Z,0
2023-02-01T17:28:53.533Z,0
2023-02-01T17:30:09.856Z,0
2023-02-01T17:31:26.133Z,0
2023-02-01T17:32:42.421Z,0
2023-02-01T17:33:58.717Z,0
2023-02-01T17:35:14.051Z,0
2023-02-01T17:36:30.334Z,0
2023-02-01T17:37:46.609Z,0
2023-02-01T17:39:02.932Z,0
2023-02-01T17:40:19.213Z,0
2023-02-01T17:41:35.498Z,0
2023-02-01T17:42:51.790Z,0
2023-02-01T17:44:08.116Z,0
2023-02-01T17:45:24.399Z,0
2023-02-01T17:46:40.680Z,0
2023-02-01T17:47:56.982Z,0
2023-02-01T17:49:13.281Z,0
2023-02-01T17:50:29.574Z,0
2023-02-01T17:51:44.864Z,0
2023-02-01T17:53:01.168Z,0
2023-02-01T17:54:17.468Z,0
2023-02-01T17:55:33.776Z,0
2023-02-01T17:56:50.063Z,0
2023-02-01T17:58:06.344Z,0
2023-02-01T17:59:22.633Z,0
2023-02-01T18:00:38.957Z,0
2023-02-01T18:01:55.249Z,0
2023-02-01T18:03:11.522Z,0